createdAt,value
2023-05-09T00:01:24.712Z,2.47
2023-05-09T00:03:52.292Z,2.83
2023-05-09T00:06:19.806Z,2.28
2023-05-09T00:08:46.785Z,2.70
2023-05-09T00:11:13.939Z,2.70
2023-05-09T00:13:41.952Z,2.92
2023-05-09T00:16:09.346Z,2.88
2023-05-09T00:18:37.540Z,2.83
2023-05-09T00:21:04.519Z,3.05
2023-05-09T00:23:31.342Z,2.75
2023-05-09T00:25:59.176Z,2.80
2023-05-09T00:28:25.996Z,2.45
2023-05-09T00:30:52.988Z,2.60
2023-05-09T00:33:20.434Z,2.80
2023-05-09T00:35:47.255Z,2.95
2023-05-09T00:38:14.190Z,3.10
2023-05-09T00:40:41.075Z,2.83
2023-05-09T00:43:07.954Z,2.85
2023-05-09T00:45:34.755Z,2.90
2023-05-09T00:48:01.644Z,2.70
2023-05-09T00:50:28.596Z,3.25
2023-05-09T00:52:55.807Z,3.28
2023-05-09T00:55:23.183Z,3.50
2023-05-09T00:57:50.000Z,2.95
2023-05-09T01:00:17.482Z,2.67
2023-05-09T01:02:46.834Z,3.10
2023-05-09T01:05:14.133Z,3.28
2023-05-09T01:07:56.286Z,3.00
2023-05-09T01:10:44.908Z,2.90
2023-05-09T01:13:27.733Z,3.17
2023-05-09T01:16:22.072Z,3.15
2023-05-09T01:19:10.820Z,2.75
2023-05-09T01:21:37.989Z,3.05
2023-05-09T01:24:33.897Z,3.13
2023-05-09T01:27:20.889Z,2.72
2023-05-09T01:29:48.503Z,3.10
2023-05-09T01:32:23.112Z,3.08
2023-05-09T01:34:51.428Z,3.10
2023-05-09T01:37:19.704Z,3.58
2023-05-09T01:39:51.538Z,3.28
2023-05-09T01:42:19.425Z,3.17
2023-05-09T01:44:46.491Z,2.92
2023-05-09T01:47:13.376Z,2.85
2023-05-09T01:49:40.435Z,3.40
2023-05-09T01:52:12.202Z,3.10
2023-05-09T01:54:39.149Z,3.33
2023-05-09T01:57:06.679Z,3.45
2023-05-09T01:59:34.555Z,3.85
2023-05-09T02:02:03.046Z,3.95
2023-05-09T02:04:29.931Z,3.67
2023-05-09T02:06:57.259Z,3.72
2023-05-09T02:09:24.675Z,3.88
2023-05-09T02:11:51.586Z,3.83
2023-05-09T02:14:18.454Z,3.60
2023-05-09T02:16:45.426Z,4.00
2023-05-09T02:19:12.292Z,3.97
2023-05-09T02:21:39.142Z,4.38
2023-05-09T02:24:06.417Z,4.00
2023-05-09T02:26:35.042Z,3.97
2023-05-09T02:29:02.908Z,3.63
2023-05-09T02:31:29.787Z,3.88
2023-05-09T02:33:56.755Z,3.78
2023-05-09T02:36:23.787Z,3.72
2023-05-09T02:38:50.701Z,3.75
2023-05-09T02:41:17.637Z,3.97
2023-05-09T02:43:44.956Z,3.58
2023-05-09T02:46:11.854Z,3.70
2023-05-09T02:48:38.742Z,3.40
2023-05-09T02:51:05.666Z,4.05
2023-05-09T02:53:32.583Z,3.80
2023-05-09T02:55:59.487Z,3.40
2023-05-09T02:58:26.415Z,3.45
2023-05-09T03:00:53.281Z,3.75
2023-05-09T03:03:22.214Z,3.65
2023-05-09T03:05:50.807Z,3.03
2023-05-09T03:08:17.699Z,3.33
2023-05-09T03:10:44.544Z,3.40
2023-05-09T03:13:11.570Z,3.45
2023-05-09T03:15:38.452Z,3.40
2023-05-09T03:18:06.387Z,3.35
2023-05-09T03:20:33.324Z,3.30
2023-05-09T03:23:00.333Z,2.92
2023-05-09T03:25:27.274Z,3.22
2023-05-09T03:27:54.219Z,3.72
2023-05-09T03:30:22.355Z,3.55
2023-05-09T03:32:49.981Z,3.15
2023-05-09T03:35:17.033Z,3.17
2023-05-09T03:37:44.127Z,3.00
2023-05-09T03:40:11.662Z,3.25
2023-05-09T03:42:50.540Z,3.20
2023-05-09T03:45:17.388Z,3.33
2023-05-09T03:47:46.352Z,3.33
2023-05-09T03:50:13.831Z,3.33
2023-05-09T03:52:41.254Z,3.78
2023-05-09T03:55:12.274Z,3.90
2023-05-09T03:57:39.291Z,3.30
2023-05-09T04:00:08.154Z,3.40
2023-05-09T04:02:41.790Z,3.53
2023-05-09T04:05:13.620Z,3.65
2023-05-09T04:07:41.283Z,3.50
2023-05-09T04:10:09.388Z,3.22
2023-05-09T04:12:36.415Z,3.10
2023-05-09T04:15:03.745Z,3.47
2023-05-09T04:17:31.371Z,3.55
2023-05-09T04:19:58.272Z,3.20
2023-05-09T04:22:25.146Z,3.22
2023-05-09T04:24:52.088Z,3.45
2023-05-09T04:27:19.027Z,3.10
2023-05-09T04:29:46.804Z,3.47
2023-05-09T04:32:15.801Z,3.35
2023-05-09T04:34:43.051Z,3.35
2023-05-09T04:37:17.170Z,3.55
2023-05-09T04:39:44.444Z,3.50
2023-05-09T04:42:18.253Z,3.85
2023-05-09T04:44:45.194Z,3.17
2023-05-09T04:47:12.226Z,3.50
2023-05-09T04:49:39.163Z,3.00
2023-05-09T04:52:07.042Z,3.17
2023-05-09T04:54:34.240Z,3.30
2023-05-09T04:57:13.688Z,3.03
2023-05-09T04:59:42.137Z,2.65
2023-05-09T05:02:10.180Z,3.22
2023-05-09T05:04:38.159Z,3.25
2023-05-09T05:07:05.382Z,3.55
2023-05-09T05:09:32.769Z,3.70
2023-05-09T05:12:02.281Z,2.90
2023-05-09T05:14:31.503Z,3.25
2023-05-09T05:16:58.658Z,3.10
2023-05-09T05:19:25.609Z,3.15
2023-05-09T05:21:52.503Z,3.45
2023-05-09T05:24:19.475Z,3.65
2023-05-09T05:26:47.143Z,3.55
2023-05-09T05:29:14.847Z,3.20
2023-05-09T05:31:41.804Z,3.33
2023-05-09T05:34:08.650Z,3.47
2023-05-09T05:36:35.667Z,3.85
2023-05-09T05:39:02.620Z,3.30
2023-05-09T05:41:29.482Z,2.80
2023-05-09T05:43:56.635Z,3.50
2023-05-09T05:46:23.582Z,3.50
2023-05-09T05:48:51.194Z,3.53
2023-05-09T05:51:18.136Z,3.35
2023-05-09T05:53:45.954Z,3.15
2023-05-09T05:56:13.096Z,3.30
2023-05-09T05:58:40.860Z,3.70
2023-05-09T06:01:08.415Z,3.42
2023-05-09T06:03:35.438Z,3.90
2023-05-09T06:06:05.992Z,3.05
2023-05-09T06:08:32.956Z,3.20
2023-05-09T06:11:01.105Z,3.13
2023-05-09T06:13:28.043Z,3.33
2023-05-09T06:16:15.116Z,3.38
2023-05-09T06:18:48.412Z,2.78
2023-05-09T06:21:15.408Z,2.95
2023-05-09T06:23:56.937Z,2.97
2023-05-09T06:26:29.417Z,2.80
2023-05-09T06:28:56.491Z,3.22
2023-05-09T06:31:24.922Z,3.30
2023-05-09T06:33:52.743Z,3.13
2023-05-09T06:36:19.624Z,2.88
2023-05-09T06:38:46.653Z,3.83
2023-05-09T06:41:13.581Z,2.72
2023-05-09T06:43:40.475Z,2.92
2023-05-09T06:46:07.454Z,3.00
2023-05-09T06:48:34.371Z,2.97
2023-05-09T06:51:01.311Z,2.80
2023-05-09T06:53:28.171Z,2.67
2023-05-09T06:55:55.132Z,2.90
2023-05-09T06:58:21.996Z,2.40
2023-05-09T07:00:49.184Z,2.80
2023-05-09T07:03:16.035Z,3.30
2023-05-09T07:05:43.190Z,2.40
2023-05-09T07:08:10.060Z,2.63
2023-05-09T07:10:38.355Z,2.78
2023-05-09T07:13:05.613Z,2.20
2023-05-09T07:15:41.468Z,2.75
2023-05-09T07:18:09.340Z,2.72
2023-05-09T07:20:36.458Z,3.00
2023-05-09T07:23:04.288Z,3.17
2023-05-09T07:25:31.204Z,2.80
2023-05-09T07:27:58.224Z,2.67
2023-05-09T07:30:25.330Z,2.75
2023-05-09T07:32:52.524Z,2.72
2023-05-09T07:35:19.907Z,2.15
2023-05-09T07:37:46.855Z,2.90
2023-05-09T07:40:14.225Z,2.10
2023-05-09T07:42:42.218Z,2.42
2023-05-09T07:45:10.905Z,2.40
2023-05-09T07:47:37.829Z,2.50
2023-05-09T07:50:05.081Z,2.58
2023-05-09T07:52:31.969Z,2.15
2023-05-09T07:54:58.928Z,2.40
2023-05-09T07:57:25.856Z,2.42
2023-05-09T07:59:52.741Z,1.92
2023-05-09T08:02:19.691Z,2.28
2023-05-09T08:04:49.091Z,2.35
2023-05-09T08:07:16.236Z,2.50
2023-05-09T08:09:43.109Z,2.55
2023-05-09T08:12:09.987Z,2.75
2023-05-09T08:14:36.847Z,2.10
2023-05-09T08:17:03.740Z,2.28
2023-05-09T08:19:30.677Z,3.03
2023-05-09T08:21:57.509Z,2.35
2023-05-09T08:24:24.395Z,2.17
2023-05-09T08:26:51.236Z,2.55
2023-05-09T08:29:18.167Z,2.28
2023-05-09T08:31:45.211Z,2.30
2023-05-09T08:34:12.224Z,2.38
2023-05-09T08:36:40.950Z,2.53
2023-05-09T08:39:09.553Z,2.33
2023-05-09T08:41:36.431Z,2.22
2023-05-09T08:44:03.436Z,1.98
2023-05-09T08:46:36.584Z,1.98
2023-05-09T08:49:05.475Z,1.77
2023-05-09T08:51:32.359Z,1.77
2023-05-09T08:54:00.314Z,2.00
2023-05-09T08:56:27.188Z,1.70
2023-05-09T08:58:54.469Z,2.13
2023-05-09T09:01:21.375Z,1.75
2023-05-09T09:03:49.578Z,1.90
2023-05-09T09:06:16.972Z,1.90
2023-05-09T09:08:44.365Z,1.70
2023-05-09T09:11:12.326Z,1.90
2023-05-09T09:13:40.803Z,1.52
2023-05-09T09:16:12.735Z,1.83
2023-05-09T09:18:39.940Z,1.73
2023-05-09T09:21:07.653Z,1.73
2023-05-09T09:23:34.519Z,1.80
2023-05-09T09:26:02.254Z,1.70
2023-05-09T09:28:29.538Z,2.10
2023-05-09T09:30:56.613Z,2.10
2023-05-09T09:33:24.778Z,1.90
2023-05-09T09:35:53.102Z,1.67
2023-05-09T09:38:20.971Z,1.50
2023-05-09T09:40:57.470Z,1.67
2023-05-09T09:43:28.908Z,1.52
2023-05-09T09:45:57.126Z,1.50
2023-05-09T09:48:25.715Z,1.50
2023-05-09T09:50:55.223Z,1.63
2023-05-09T09:53:22.123Z,1.50
2023-05-09T09:55:52.209Z,1.58
2023-05-09T09:58:21.977Z,1.60
2023-05-09T10:00:50.443Z,1.55
2023-05-09T10:03:17.671Z,1.73
2023-05-09T10:05:45.078Z,1.75
2023-05-09T10:08:12.024Z,1.67
2023-05-09T10:10:38.928Z,1.80
2023-05-09T10:13:10.640Z,1.67
2023-05-09T10:15:49.291Z,1.35
2023-05-09T10:18:20.397Z,1.52
2023-05-09T10:20:47.365Z,1.30
2023-05-09T10:23:14.236Z,1.30
2023-05-09T10:26:10.420Z,1.38
2023-05-09T10:28:37.304Z,1.35
2023-05-09T10:31:08.774Z,1.30
2023-05-09T10:33:44.238Z,1.30
2023-05-09T10:36:11.100Z,1.15
2023-05-09T10:38:38.053Z,1.35
2023-05-09T10:41:05.273Z,1.70
2023-05-09T10:43:34.251Z,1.58
2023-05-09T10:46:06.274Z,1.00
2023-05-09T10:48:33.375Z,1.42
2023-05-09T10:51:03.688Z,1.05
2023-05-09T10:53:50.083Z,1.40
2023-05-09T10:56:31.830Z,1.38
2023-05-09T10:58:59.429Z,1.35
2023-05-09T11:01:37.750Z,1.20
2023-05-09T11:04:15.126Z,1.38
2023-05-09T11:06:42.393Z,1.38
2023-05-09T11:09:34.383Z,1.48
2023-05-09T11:12:07.068Z,1.20
2023-05-09T11:14:47.643Z,1.30
2023-05-09T11:17:27.124Z,1.60
2023-05-09T11:19:57.875Z,1.33
2023-05-09T11:22:28.613Z,1.15
2023-05-09T11:25:17.082Z,1.55
2023-05-09T11:27:44.855Z,1.20
2023-05-09T11:30:14.474Z,1.00
2023-05-09T11:32:45.875Z,1.30
2023-05-09T11:35:20.892Z,1.20
2023-05-09T11:38:04.859Z,1.10
2023-05-09T11:40:32.502Z,1.33
2023-05-09T11:43:00.032Z,1.30
2023-05-09T11:45:31.634Z,1.15
2023-05-09T11:47:58.835Z,1.50
2023-05-09T11:50:25.888Z,1.00
2023-05-09T11:52:53.434Z,1.30
2023-05-09T11:55:22.902Z,1.52
2023-05-09T11:57:53.909Z,1.30
2023-05-09T12:00:25.684Z,1.35
2023-05-09T12:02:53.319Z,1.02
2023-05-09T12:05:21.429Z,1.63
2023-05-09T12:07:48.436Z,1.58
2023-05-09T12:10:20.792Z,0.90
2023-05-09T12:12:49.601Z,1.37
2023-05-09T12:15:17.094Z,1.20
2023-05-09T12:17:44.711Z,1.23
2023-05-09T12:20:11.821Z,1.23
2023-05-09T12:22:38.762Z,1.38
2023-05-09T12:25:07.635Z,1.05
2023-05-09T12:27:38.433Z,1.05
2023-05-09T12:30:10.287Z,1.20
2023-05-09T12:32:39.226Z,1.15
2023-05-09T12:35:10.473Z,1.20
2023-05-09T12:37:38.113Z,1.27
2023-05-09T12:40:15.973Z,1.40
2023-05-09T12:42:46.261Z,1.13
2023-05-09T12:45:13.962Z,1.10
2023-05-09T12:47:45.531Z,1.27
2023-05-09T12:50:13.467Z,1.10
2023-05-09T12:52:58.587Z,1.30
2023-05-09T12:55:29.408Z,1.40
2023-05-09T12:58:00.771Z,1.20
2023-05-09T13:00:27.693Z,1.27
2023-05-09T13:02:54.989Z,1.23
2023-05-09T13:05:22.719Z,1.05
2023-05-09T13:07:56.120Z,1.67
2023-05-09T13:10:28.469Z,1.30
2023-05-09T13:12:55.491Z,1.43
2023-05-09T13:15:23.139Z,1.52
2023-05-09T13:17:51.435Z,1.30
2023-05-09T13:20:18.878Z,1.40
2023-05-09T13:22:46.087Z,1.20
2023-05-09T13:25:13.051Z,1.30
2023-05-09T13:27:40.041Z,1.30
2023-05-09T13:30:07.815Z,1.40
2023-05-09T13:32:36.601Z,1.10
2023-05-09T13:35:06.825Z,1.13
2023-05-09T13:37:37.185Z,1.38
2023-05-09T13:40:04.530Z,1.45
2023-05-09T13:42:33.462Z,1.23
2023-05-09T13:45:00.517Z,2.20
2023-05-09T13:47:27.622Z,1.50
2023-05-09T13:49:54.609Z,0.90
2023-05-09T13:52:21.498Z,1.17
2023-05-09T13:54:48.571Z,1.00
2023-05-09T13:57:15.742Z,1.10
2023-05-09T13:59:42.690Z,1.40
2023-05-09T14:02:11.051Z,1.20
2023-05-09T14:04:38.086Z,1.38
2023-05-09T14:07:04.984Z,1.20
2023-05-09T14:09:38.168Z,1.10
2023-05-09T14:12:05.338Z,1.58
2023-05-09T14:14:32.344Z,1.30
2023-05-09T14:17:00.065Z,1.88
2023-05-09T14:19:28.781Z,1.40
2023-05-09T14:21:55.776Z,1.17
2023-05-09T14:24:22.722Z,1.55
2023-05-09T14:26:49.619Z,1.50
2023-05-09T14:29:16.781Z,1.60
2023-05-09T14:31:43.712Z,1.60
2023-05-09T14:34:11.543Z,1.88
2023-05-09T14:36:38.467Z,2.10
2023-05-09T14:39:06.420Z,2.42
2023-05-09T14:41:33.306Z,3.80
2023-05-09T14:44:00.262Z,3.90
2023-05-09T14:46:27.277Z,4.65
2023-05-09T14:48:54.416Z,4.32
2023-05-09T14:51:21.886Z,4.78
2023-05-09T14:53:48.831Z,4.97
2023-05-09T14:56:15.856Z,4.40
2023-05-09T14:58:42.728Z,4.43
2023-05-09T15:01:09.693Z,5.32
2023-05-09T15:03:36.890Z,4.80
2023-05-09T15:06:03.910Z,5.55
2023-05-09T15:08:30.894Z,9.43
2023-05-09T15:10:57.871Z,6.55
2023-05-09T15:13:24.805Z,4.55
2023-05-09T15:15:51.797Z,3.90
2023-05-09T15:18:20.141Z,3.45
2023-05-09T15:20:47.035Z,2.85
2023-05-09T15:23:13.949Z,2.78
2023-05-09T15:25:42.202Z,2.10
2023-05-09T15:28:09.136Z,2.20
2023-05-09T15:30:38.364Z,2.33
2023-05-09T15:33:05.482Z,2.35
2023-05-09T15:35:32.429Z,1.98
2023-05-09T15:37:59.763Z,1.80
2023-05-09T15:40:27.294Z,2.13
2023-05-09T15:42:54.144Z,1.90
2023-05-09T15:45:21.040Z,1.80
2023-05-09T15:47:48.326Z,1.75
2023-05-09T15:50:15.443Z,1.55
2023-05-09T15:52:43.018Z,1.70
2023-05-09T15:55:10.690Z,1.77
2023-05-09T15:57:37.674Z,2.05
2023-05-09T16:00:05.630Z,1.45
2023-05-09T16:02:39.688Z,1.58
2023-05-09T16:05:06.902Z,1.42
2023-05-09T16:07:35.643Z,1.60
2023-05-09T16:10:03.156Z,6.00
2023-05-09T16:12:32.839Z,3.05
2023-05-09T16:15:00.040Z,1.90
2023-05-09T16:17:27.076Z,1.65
2023-05-09T16:19:54.912Z,2.13
2023-05-09T16:22:21.950Z,1.70
2023-05-09T16:24:49.244Z,1.63
2023-05-09T16:27:16.529Z,1.95
2023-05-09T16:29:43.417Z,2.00
2023-05-09T16:32:10.840Z,2.10
2023-05-09T16:34:37.829Z,2.20
2023-05-09T16:37:04.860Z,1.60
2023-05-09T16:39:32.342Z,1.60
2023-05-09T16:41:59.644Z,1.98
2023-05-09T16:44:26.684Z,1.42
2023-05-09T16:46:53.719Z,1.67
2023-05-09T16:49:20.560Z,1.73
2023-05-09T16:51:47.466Z,1.77
2023-05-09T16:54:14.343Z,1.77
2023-05-09T16:56:42.322Z,1.90
2023-05-09T16:59:09.210Z,2.22
2023-05-09T17:01:36.212Z,2.20
2023-05-09T17:04:06.604Z,2.00
2023-05-09T17:06:34.217Z,1.90
2023-05-09T17:09:01.427Z,1.75
2023-05-09T17:11:29.128Z,1.98
2023-05-09T17:13:56.062Z,2.03
2023-05-09T17:16:22.930Z,2.20
2023-05-09T17:18:49.815Z,2.35
2023-05-09T17:21:17.023Z,2.88
2023-05-09T17:23:44.002Z,3.08
2023-05-09T17:26:10.958Z,2.83
2023-05-09T17:28:37.924Z,9.35
2023-05-09T17:31:04.809Z,6.07
2023-05-09T17:33:31.735Z,2.88
2023-05-09T17:36:00.092Z,2.33
2023-05-09T17:38:27.024Z,3.35
2023-05-09T17:40:53.925Z,2.58
2023-05-09T17:43:21.840Z,3.33
2023-05-09T17:45:48.776Z,3.03
2023-05-09T17:48:16.046Z,9.38
2023-05-09T17:50:43.882Z,6.22
2023-05-09T17:53:10.794Z,5.97
2023-05-09T17:55:37.732Z,6.40
2023-05-09T17:58:04.646Z,3.25
2023-05-09T18:00:31.655Z,2.90
2023-05-09T18:03:00.745Z,2.30
2023-05-09T18:05:28.050Z,2.45
2023-05-09T18:07:55.048Z,2.85
2023-05-09T18:10:22.283Z,2.63
2023-05-09T18:12:49.186Z,3.38
2023-05-09T18:15:16.100Z,2.97
2023-05-09T18:17:43.016Z,2.60
2023-05-09T18:20:10.284Z,2.42
2023-05-09T18:22:38.714Z,2.78
2023-05-09T18:25:07.883Z,1.90
2023-05-09T18:27:34.850Z,2.30
2023-05-09T18:30:01.707Z,2.28
2023-05-09T18:32:29.972Z,1.77
2023-05-09T18:34:57.129Z,1.85
2023-05-09T18:37:24.822Z,1.83
2023-05-09T18:39:51.793Z,2.10
2023-05-09T18:42:19.264Z,1.70
2023-05-09T18:44:46.200Z,2.28
2023-05-09T18:47:13.245Z,1.95
2023-05-09T18:49:41.547Z,2.13
2023-05-09T18:52:12.194Z,2.10
2023-05-09T18:54:41.201Z,2.05
2023-05-09T18:57:08.601Z,1.88
2023-05-09T18:59:35.723Z,1.70
2023-05-09T19:02:02.686Z,2.15
2023-05-09T19:04:29.898Z,1.60
2023-05-09T19:06:59.281Z,1.92
2023-05-09T19:09:26.204Z,2.20
2023-05-09T19:11:53.170Z,1.63
2023-05-09T19:14:20.931Z,1.70
2023-05-09T19:16:48.590Z,1.63
2023-05-09T19:19:15.819Z,1.52
2023-05-09T19:21:43.074Z,1.55
2023-05-09T19:24:10.259Z,1.73
2023-05-09T19:26:37.130Z,1.40
2023-05-09T19:29:08.073Z,1.40
2023-05-09T19:31:36.493Z,1.10
2023-05-09T19:34:03.642Z,1.33
2023-05-09T19:36:30.951Z,1.42
2023-05-09T19:38:57.886Z,0.90
2023-05-09T19:41:24.840Z,1.35
2023-05-09T19:43:52.169Z,1.10
2023-05-09T19:46:19.429Z,1.48
2023-05-09T19:48:49.269Z,1.20
2023-05-09T19:51:16.214Z,1.08
2023-05-09T19:53:43.111Z,1.10
2023-05-09T19:56:10.188Z,1.30
2023-05-09T19:58:37.135Z,1.10
2023-05-09T20:01:06.831Z,1.30
2023-05-09T20:03:36.910Z,0.95
2023-05-09T20:06:04.198Z,1.30
2023-05-09T20:08:31.283Z,1.05
2023-05-09T20:11:00.136Z,1.27
2023-05-09T20:13:27.840Z,0.95
2023-05-09T20:15:55.255Z,1.27
2023-05-09T20:18:22.228Z,0.77
2023-05-09T20:20:49.100Z,0.90
2023-05-09T20:23:15.991Z,1.02
2023-05-09T20:25:42.871Z,1.17
2023-05-09T20:28:11.852Z,0.90
2023-05-09T20:30:38.908Z,1.02
2023-05-09T20:33:05.869Z,1.10
2023-05-09T20:35:32.820Z,0.98
2023-05-09T20:37:59.781Z,1.20
2023-05-09T20:40:26.642Z,0.93
2023-05-09T20:42:53.517Z,0.77
2023-05-09T20:45:20.561Z,1.13
2023-05-09T20:47:47.668Z,0.85
2023-05-09T20:50:14.840Z,1.05
2023-05-09T20:52:41.994Z,0.57
2023-05-09T20:55:09.166Z,1.23
2023-05-09T20:57:36.074Z,0.80
2023-05-09T21:00:03.946Z,1.00
2023-05-09T21:02:31.281Z,0.73
2023-05-09T21:04:58.271Z,0.95
2023-05-09T21:07:25.106Z,0.82
2023-05-09T21:09:54.098Z,0.80
2023-05-09T21:12:21.140Z,0.60
2023-05-09T21:14:49.015Z,0.90
2023-05-09T21:17:15.918Z,0.70
2023-05-09T21:19:42.804Z,0.40
2023-05-09T21:22:09.702Z,0.63
2023-05-09T21:24:36.556Z,0.50
2023-05-09T21:27:03.620Z,0.68
2023-05-09T21:29:30.560Z,0.55
2023-05-09T21:31:57.411Z,0.70
2023-05-09T21:34:24.306Z,0.70
2023-05-09T21:36:51.172Z,0.68
2023-05-09T21:39:18.031Z,0.80
2023-05-09T21:41:44.915Z,0.80
2023-05-09T21:44:12.174Z,0.77
2023-05-09T21:46:39.279Z,0.77
2023-05-09T21:49:06.618Z,0.55
2023-05-09T21:51:34.788Z,0.85
2023-05-09T21:54:01.710Z,0.52
2023-05-09T21:56:28.575Z,0.50
2023-05-09T21:58:55.655Z,0.60
2023-05-09T22:01:22.585Z,0.82
2023-05-09T22:03:49.597Z,0.60
2023-05-09T22:06:16.539Z,0.60
2023-05-09T22:08:43.362Z,0.70
2023-05-09T22:11:10.997Z,0.70
2023-05-09T22:13:39.656Z,0.77
2023-05-09T22:16:07.234Z,0.52
2023-05-09T22:18:34.162Z,0.55
2023-05-09T22:21:01.123Z,0.70
2023-05-09T22:23:27.999Z,0.77
2023-05-09T22:25:54.926Z,0.90
2023-05-09T22:28:21.837Z,0.82
2023-05-09T22:30:48.648Z,0.60
2023-05-09T22:33:15.507Z,0.93
2023-05-09T22:35:42.401Z,0.60
2023-05-09T22:38:09.293Z,0.50
2023-05-09T22:40:36.178Z,0.70
2023-05-09T22:43:03.092Z,0.82
2023-05-09T22:45:30.010Z,0.95
2023-05-09T22:47:57.672Z,0.90
2023-05-09T22:50:24.638Z,0.90
2023-05-09T22:52:51.516Z,1.10
2023-05-09T22:55:18.508Z,0.85
2023-05-09T22:57:45.604Z,0.80
2023-05-09T23:00:13.164Z,0.70
2023-05-09T23:02:40.195Z,0.70
2023-05-09T23:05:08.816Z,0.80
2023-05-09T23:07:35.695Z,0.60
2023-05-09T23:10:02.661Z,0.98
2023-05-09T23:12:29.528Z,0.52
2023-05-09T23:14:56.509Z,0.88
2023-05-09T23:17:23.472Z,0.88
2023-05-09T23:19:50.664Z,0.90
2023-05-09T23:22:17.794Z,0.80
2023-05-09T23:24:44.669Z,1.20
2023-05-09T23:27:11.622Z,0.85
2023-05-09T23:29:38.481Z,0.90
2023-05-09T23:32:05.449Z,0.88
2023-05-09T23:34:32.451Z,0.90
2023-05-09T23:36:59.289Z,0.90
2023-05-09T23:39:26.586Z,0.93
2023-05-09T23:41:53.493Z,1.00
2023-05-09T23:44:20.558Z,0.70
2023-05-09T23:46:47.438Z,1.42
2023-05-09T23:49:14.757Z,0.68
2023-05-09T23:51:41.678Z,1.00
2023-05-09T23:54:08.612Z,0.80
2023-05-09T23:56:35.543Z,0.90
2023-05-09T23:59:02.502Z,0.65
